Weather at Morgantown Municipal Walter L. Bill Hart Field

Public forecast

Using degrees Fahrenheit for public forecast. Weather courtesy of forecast.io.

Current aviation weather report (METAR) for Morgantown Municipal Walter L. Bill Hart Field

Retrieved 2020/09/29 06:53 UTC (13 minutes ago):

KMGW 290653Z AUTO VRB05KT 9SM FEW008 BKN027 OVC035 15/13 A2986 RMK AO2 RAB0555E38 SLP105 P0006 T01500133

Aviation forecast (TAF) for Morgantown Municipal Walter L. Bill Hart Field

Retrieved 2020/09/29 06:24 UTC (42 minutes ago):

TAF COR KMGW 290522Z 2906/3006 28010KT P6SM -SHRA OVC040 FM290700 26008KT P6SM -SHRA OVC010 FM291300 29003KT 5SM -RA BR OVC007 FM291800 28003KT 3SM -RA BR OVC010 FM300100 00000KT 5SM RA BR OVC007